Coto Laurel, PR (00780)

9:06 AM AST on September 23, 2014 (GMT -0400)
Manolo Weather | Change Station
CLOSE
Current Station
Personal Weather Station
Location: Ponce, PONCE
Elevation: 88 ft
Nearby Weather Stations

Elev 88 ft 18.01 °N, 66.59 °W | Updated 25 seconds ago

Mostly Cloudy
Mostly Cloudy
88.0 °F
Feels Like 101 °F
N
3.1
Wind Variable Wind from SSE
Gusts 10.7 mph

Today
High -- | Low -- °F
--% Chance of Precip.
Yesterday
High -- | Low -- °F
Precip. -- in
6:15 AM 6:21 PM
Waning Crescent, 0% visible
Pressure 29.98 in
Visibility 10.0 miles
Clouds Scattered Clouds 3000 ft
Mostly Cloudy 6000 ft
Heat Index 101 °F
Dew Point 78 °F
Humidity 71%
Rainfall 0.01 in
Snow Depth Not available.
UV 0.0 out of 12
Pollen Not available.
Air Quality Not available.
Flu Activity Not available.
METAR TJMZ 231250Z 10005KT 10SM SCT030 BKN060 27/22 A2998

More Conditions Fewer Conditions

Pressure 29.98 in
Visibility 10.0 miles
Clouds Scattered Clouds 3000 ft
Mostly Cloudy 6000 ft
Heat Index 101 °F
Dew Point 78 °F
Humidity 71%
Rainfall 0.01 in
Snow Depth Not available.
UV 0.0 out of 12
Pollen Not available.
Air Quality Not available.
Flu Activity Not available.
METAR TJMZ 231250Z 10005KT 10SM SCT030 BKN060 27/22 A2998

More Conditions Fewer Conditions

10-Day Weather Forecast

Almanac

Astronomy

Sep. 23, 2014 Rise Set
Actual Time 6:15 AM AST 6:21 PM AST
Civil Twilight 5:53 AM AST 6:43 PM AST
Nautical Twilight 5:28 AM AST 7:08 PM AST
Astronomical Twilight 5:02 AM AST 7:33 PM AST
Moon 5:38 AM AST 6:00 PM AST
Length of Visible Light 12h 49m
Length of Day
12h 06m
Tomorrow will be 1m 1s shorter.
Waning Crescent, 0% of the Moon is Illuminated
Today
Waning Crescent
Sep 24
New
Oct 1
First Quarter
Oct 8
Full
Oct 15
Last Quarter

Community

WunderPhotos

Upload Photos

1,755,667 photos uploaded!

WunderBlogs® & News

Nearby

Snow Depth

Station Depth Elevation
No new snow has been reported.

Earthquake Activity

City Distance Mag. Time & Date
No recent earthquake activity has been reported nearby.
Minimum magnitude displayed is 2.5.

Coastal Water Temperatures

Place Temperature
Magueyes Islands, PR 84.0 °F
Yabucoa Harbor, PR 84.0 °F

Nearby Weather Stations